Crescent Mills, Massachusetts
Current Conditions -  °F | °C
As of 10:53 AM on Monday 24 Nov 2014 (Local Time) from KBAF Reporting Station
Overcast Overcast  
Wind Chill: 63°   Ceiling: 2100
Heat Index: 63°   Visibility: 10mi
Dew Point: 60°   Wind: 13mph
Humidity: 90%   Direction: 180°S
Pressure: 29.64"   Gusts: NA
Location:  42.3047°N, 72.879°W
Report Text: KBAF 241553Z 18011KT 10SM BKN021 OVC027 17/16 A2964 RMK AO2 RAE1458 SLP040 P0001 T01720156
Loading
Personal Weather Stations






























Interactive Weather Map New forecast layout! Learn more

10-Day Weather Forecast

Advertisements
Track Severe Weather on mobile